sensor_id;sensor_type;location;lat;lon;timestamp;P1;durP1;ratioP1;P2;durP2;ratioP2
5813;SDS011;2933;52.302;8.134;2022-07-01T00:02:38;3.03;;;2.83;;
5813;SDS011;2933;52.302;8.134;2022-07-01T00:07:41;2.87;;;2.33;;
5813;SDS011;2933;52.302;8.134;2022-07-01T00:12:43;2.60;;;2.40;;
5813;SDS011;2933;52.302;8.134;2022-07-01T00:17:44;4.70;;;2.40;;
5813;SDS011;2933;52.302;8.134;2022-07-01T00:22:47;2.23;;;2.03;;
5813;SDS011;2933;52.302;8.134;2022-07-01T00:27:49;2.27;;;2.00;;
5813;SDS011;2933;52.302;8.134;2022-07-01T00:32:50;4.23;;;1.87;;
5813;SDS011;2933;52.302;8.134;2022-07-01T00:37:54;1.40;;;1.30;;
5813;SDS011;2933;52.302;8.134;2022-07-01T00:42:57;1.73;;;1.63;;
5813;SDS011;2933;52.302;8.134;2022-07-01T00:47:58;1.60;;;1.50;;
5813;SDS011;2933;52.302;8.134;2022-07-01T00:53:02;1.60;;;1.37;;
5813;SDS011;2933;52.302;8.134;2022-07-01T00:58:06;1.80;;;1.70;;
5813;SDS011;2933;52.302;8.134;2022-07-01T01:03:08;3.03;;;1.60;;
5813;SDS011;2933;52.302;8.134;2022-07-01T01:08:13;1.63;;;1.53;;
5813;SDS011;2933;52.302;8.134;2022-07-01T01:13:15;1.97;;;1.67;;
5813;SDS011;2933;52.302;8.134;2022-07-01T01:18:17;1.60;;;1.50;;
5813;SDS011;2933;52.302;8.134;2022-07-01T01:23:20;1.43;;;1.33;;
5813;SDS011;2933;52.302;8.134;2022-07-01T01:28:21;3.73;;;1.33;;
5813;SDS011;2933;52.302;8.134;2022-07-01T01:33:24;1.80;;;1.77;;
5813;SDS011;2933;52.302;8.134;2022-07-01T01:38:27;3.30;;;1.77;;
5813;SDS011;2933;52.302;8.134;2022-07-01T01:43:29;2.97;;;2.17;;
5813;SDS011;2933;52.302;8.134;2022-07-01T01:48:30;2.80;;;1.90;;
5813;SDS011;2933;52.302;8.134;2022-07-01T01:53:33;2.00;;;1.90;;
5813;SDS011;2933;52.302;8.134;2022-07-01T01:58:35;2.83;;;1.80;;
5813;SDS011;2933;52.302;8.134;2022-07-01T02:03:37;4.47;;;2.10;;
5813;SDS011;2933;52.302;8.134;2022-07-01T02:08:40;3.77;;;2.10;;
5813;SDS011;2933;52.302;8.134;2022-07-01T02:13:42;1.50;;;1.40;;
5813;SDS011;2933;52.302;8.134;2022-07-01T02:18:44;1.87;;;1.77;;
5813;SDS011;2933;52.302;8.134;2022-07-01T02:23:47;4.10;;;1.73;;
5813;SDS011;2933;52.302;8.134;2022-07-01T02:28:48;1.80;;;1.70;;
5813;SDS011;2933;52.302;8.134;2022-07-01T02:33:50;1.73;;;1.63;;
5813;SDS011;2933;52.302;8.134;2022-07-01T02:38:53;3.50;;;2.50;;
5813;SDS011;2933;52.302;8.134;2022-07-01T02:43:54;2.13;;;2.03;;
5813;SDS011;2933;52.302;8.134;2022-07-01T02:48:56;2.90;;;2.63;;
5813;SDS011;2933;52.302;8.134;2022-07-01T02:53:59;3.63;;;3.10;;
5813;SDS011;2933;52.302;8.134;2022-07-01T02:59:00;4.53;;;2.80;;
5813;SDS011;2933;52.302;8.134;2022-07-01T03:04:02;4.27;;;3.30;;
5813;SDS011;2933;52.302;8.134;2022-07-01T03:10:08;5.97;;;4.03;;
5813;SDS011;2933;52.302;8.134;2022-07-01T03:15:11;5.17;;;4.77;;
5813;SDS011;2933;52.302;8.134;2022-07-01T03:20:14;6.67;;;4.90;;
5813;SDS011;2933;52.302;8.134;2022-07-01T03:25:18;4.70;;;4.30;;
5813;SDS011;2933;52.302;8.134;2022-07-01T03:30:20;5.37;;;4.70;;
5813;SDS011;2933;52.302;8.134;2022-07-01T03:35:21;5.60;;;5.10;;
5813;SDS011;2933;52.302;8.134;2022-07-01T03:40:40;6.93;;;4.70;;
5813;SDS011;2933;52.302;8.134;2022-07-01T03:45:42;14.87;;;5.37;;
5813;SDS011;2933;52.302;8.134;2022-07-01T03:50:43;6.33;;;4.97;;
5813;SDS011;2933;52.302;8.134;2022-07-01T03:55:46;6.50;;;6.00;;
5813;SDS011;2933;52.302;8.134;2022-07-01T04:00:48;6.20;;;5.60;;
5813;SDS011;2933;52.302;8.134;2022-07-01T04:05:50;9.17;;;6.07;;
5813;SDS011;2933;52.302;8.134;2022-07-01T04:10:52;7.60;;;5.90;;
5813;SDS011;2933;52.302;8.134;2022-07-01T04:15:55;10.60;;;6.27;;
5813;SDS011;2933;52.302;8.134;2022-07-01T04:20:58;8.10;;;6.90;;
5813;SDS011;2933;52.302;8.134;2022-07-01T04:26:19;8.43;;;6.33;;
5813;SDS011;2933;52.302;8.134;2022-07-01T04:31:20;9.40;;;7.10;;
5813;SDS011;2933;52.302;8.134;2022-07-01T04:36:22;10.33;;;7.00;;
5813;SDS011;2933;52.302;8.134;2022-07-01T04:41:25;8.40;;;7.50;;
5813;SDS011;2933;52.302;8.134;2022-07-01T04:46:44;11.77;;;9.30;;
5813;SDS011;2933;52.302;8.134;2022-07-01T04:51:46;10.40;;;8.30;;
5813;SDS011;2933;52.302;8.134;2022-07-01T04:56:49;10.83;;;9.07;;
5813;SDS011;2933;52.302;8.134;2022-07-01T05:01:51;11.97;;;8.40;;
5813;SDS011;2933;52.302;8.134;2022-07-01T05:06:52;14.90;;;9.00;;
5813;SDS011;2933;52.302;8.134;2022-07-01T05:11:55;15.27;;;10.17;;
5813;SDS011;2933;52.302;8.134;2022-07-01T05:16:57;11.80;;;9.53;;
5813;SDS011;2933;52.302;8.134;2022-07-01T05:21:58;15.30;;;11.10;;
5813;SDS011;2933;52.302;8.134;2022-07-01T05:27:02;15.50;;;11.23;;
5813;SDS011;2933;52.302;8.134;2022-07-01T05:32:04;18.83;;;10.50;;
5813;SDS011;2933;52.302;8.134;2022-07-01T05:37:06;17.50;;;12.10;;
5813;SDS011;2933;52.302;8.134;2022-07-01T05:42:09;14.77;;;11.17;;
5813;SDS011;2933;52.302;8.134;2022-07-01T05:47:10;19.07;;;12.33;;
5813;SDS011;2933;52.302;8.134;2022-07-01T05:52:12;17.80;;;11.87;;
5813;SDS011;2933;52.302;8.134;2022-07-01T05:57:14;18.40;;;11.90;;
5813;SDS011;2933;52.302;8.134;2022-07-01T06:04:54;18.53;;;13.00;;
5813;SDS011;2933;52.302;8.134;2022-07-01T06:09:56;18.23;;;12.70;;
5813;SDS011;2933;52.302;8.134;2022-07-01T06:15:13;20.10;;;13.40;;
5813;SDS011;2933;52.302;8.134;2022-07-01T06:20:16;17.60;;;12.43;;
5813;SDS011;2933;52.302;8.134;2022-07-01T06:25:18;21.10;;;13.43;;
5813;SDS011;2933;52.302;8.134;2022-07-01T06:30:19;29.23;;;15.03;;
5813;SDS011;2933;52.302;8.134;2022-07-01T06:35:22;25.53;;;15.33;;
5813;SDS011;2933;52.302;8.134;2022-07-01T06:40:24;28.10;;;16.30;;
5813;SDS011;2933;52.302;8.134;2022-07-01T06:45:25;29.47;;;15.27;;
5813;SDS011;2933;52.302;8.134;2022-07-01T06:50:28;30.73;;;16.00;;
5813;SDS011;2933;52.302;8.134;2022-07-01T06:55:30;25.70;;;14.87;;
5813;SDS011;2933;52.302;8.134;2022-07-01T07:00:31;27.42;;;16.85;;
5813;SDS011;2933;52.302;8.134;2022-07-01T07:05:34;25.63;;;14.80;;
5813;SDS011;2933;52.302;8.134;2022-07-01T07:10:36;27.57;;;14.90;;
5813;SDS011;2933;52.302;8.134;2022-07-01T07:15:37;28.40;;;14.50;;
5813;SDS011;2933;52.302;8.134;2022-07-01T07:20:42;29.17;;;16.23;;
5813;SDS011;2933;52.302;8.134;2022-07-01T07:25:44;26.07;;;14.40;;
5813;SDS011;2933;52.302;8.134;2022-07-01T07:30:46;25.53;;;13.83;;
5813;SDS011;2933;52.302;8.134;2022-07-01T07:35:49;28.87;;;14.37;;
5813;SDS011;2933;52.302;8.134;2022-07-01T07:40:50;22.13;;;12.77;;
5813;SDS011;2933;52.302;8.134;2022-07-01T07:45:52;22.43;;;12.50;;
5813;SDS011;2933;52.302;8.134;2022-07-01T07:50:55;17.50;;;10.73;;
5813;SDS011;2933;52.302;8.134;2022-07-01T07:55:56;14.87;;;10.10;;
5813;SDS011;2933;52.302;8.134;2022-07-01T08:00:58;17.40;;;10.57;;
5813;SDS011;2933;52.302;8.134;2022-07-01T08:06:01;14.60;;;9.60;;
5813;SDS011;2933;52.302;8.134;2022-07-01T08:11:02;12.67;;;8.30;;
5813;SDS011;2933;52.302;8.134;2022-07-01T08:16:04;12.20;;;7.57;;
5813;SDS011;2933;52.302;8.134;2022-07-01T08:21:07;12.00;;;7.40;;
5813;SDS011;2933;52.302;8.134;2022-07-01T08:26:08;9.83;;;7.37;;
5813;SDS011;2933;52.302;8.134;2022-07-01T08:31:12;12.47;;;8.87;;
5813;SDS011;2933;52.302;8.134;2022-07-01T08:36:15;14.80;;;7.60;;
5813;SDS011;2933;52.302;8.134;2022-07-01T08:41:16;10.57;;;7.73;;
5813;SDS011;2933;52.302;8.134;2022-07-01T08:46:19;11.20;;;7.20;;
5813;SDS011;2933;52.302;8.134;2022-07-01T08:51:23;7.13;;;6.40;;
5813;SDS011;2933;52.302;8.134;2022-07-01T08:56:25;9.93;;;6.60;;
5813;SDS011;2933;52.302;8.134;2022-07-01T09:01:42;9.30;;;6.07;;
5813;SDS011;2933;52.302;8.134;2022-07-01T09:06:45;8.43;;;6.53;;
5813;SDS011;2933;52.302;8.134;2022-07-01T09:11:47;9.03;;;5.77;;
5813;SDS011;2933;52.302;8.134;2022-07-01T09:16:54;9.10;;;6.47;;
5813;SDS011;2933;52.302;8.134;2022-07-01T09:21:59;9.17;;;5.97;;
5813;SDS011;2933;52.302;8.134;2022-07-01T09:27:02;9.37;;;7.03;;
5813;SDS011;2933;52.302;8.134;2022-07-01T09:32:11;8.37;;;6.37;;
5813;SDS011;2933;52.302;8.134;2022-07-01T09:37:15;8.23;;;6.63;;
5813;SDS011;2933;52.302;8.134;2022-07-01T09:42:19;5.83;;;5.27;;
5813;SDS011;2933;52.302;8.134;2022-07-01T09:47:22;5.63;;;5.00;;
5813;SDS011;2933;52.302;8.134;2022-07-01T09:52:25;9.77;;;4.50;;
5813;SDS011;2933;52.302;8.134;2022-07-01T09:57:28;9.50;;;3.70;;
5813;SDS011;2933;52.302;8.134;2022-07-01T10:02:29;8.80;;;3.87;;
5813;SDS011;2933;52.302;8.134;2022-07-01T10:07:39;11.77;;;3.30;;
5813;SDS011;2933;52.302;8.134;2022-07-01T10:12:52;3.33;;;3.07;;
5813;SDS011;2933;52.302;8.134;2022-07-01T10:17:55;4.50;;;3.43;;
5813;SDS011;2933;52.302;8.134;2022-07-01T10:23:02;6.30;;;4.30;;
5813;SDS011;2933;52.302;8.134;2022-07-01T10:28:11;7.73;;;3.90;;
5813;SDS011;2933;52.302;8.134;2022-07-01T10:33:27;4.07;;;3.67;;
5813;SDS011;2933;52.302;8.134;2022-07-01T10:38:32;7.00;;;3.30;;
5813;SDS011;2933;52.302;8.134;2022-07-01T10:43:34;3.33;;;3.10;;
5813;SDS011;2933;52.302;8.134;2022-07-01T10:48:36;4.83;;;3.40;;
5813;SDS011;2933;52.302;8.134;2022-07-01T10:53:48;3.77;;;3.47;;
5813;SDS011;2933;52.302;8.134;2022-07-01T10:58:50;3.83;;;3.53;;
5813;SDS011;2933;52.302;8.134;2022-07-01T11:04:02;5.10;;;2.57;;
5813;SDS011;2933;52.302;8.134;2022-07-01T11:09:05;4.20;;;3.20;;
5813;SDS011;2933;52.302;8.134;2022-07-01T11:14:06;4.30;;;2.40;;
5813;SDS011;2933;52.302;8.134;2022-07-01T11:19:08;3.60;;;2.47;;
5813;SDS011;2933;52.302;8.134;2022-07-01T11:24:11;2.10;;;1.90;;
5813;SDS011;2933;52.302;8.134;2022-07-01T11:29:13;5.33;;;2.63;;
5813;SDS011;2933;52.302;8.134;2022-07-01T11:34:15;1.93;;;1.80;;
5813;SDS011;2933;52.302;8.134;2022-07-01T11:39:19;1.70;;;1.60;;
5813;SDS011;2933;52.302;8.134;2022-07-01T11:44:27;3.50;;;1.47;;
5813;SDS011;2933;52.302;8.134;2022-07-01T11:49:33;2.13;;;1.40;;
5813;SDS011;2933;52.302;8.134;2022-07-01T11:54:38;3.30;;;1.30;;
5813;SDS011;2933;52.302;8.134;2022-07-01T11:59:41;1.70;;;1.60;;
5813;SDS011;2933;52.302;8.134;2022-07-01T12:04:43;2.63;;;1.50;;
5813;SDS011;2933;52.302;8.134;2022-07-01T12:09:47;2.40;;;1.60;;
5813;SDS011;2933;52.302;8.134;2022-07-01T12:14:49;2.57;;;2.17;;
5813;SDS011;2933;52.302;8.134;2022-07-01T12:19:54;2.33;;;1.93;;
5813;SDS011;2933;52.302;8.134;2022-07-01T12:25:05;1.77;;;1.67;;
5813;SDS011;2933;52.302;8.134;2022-07-01T12:30:10;5.20;;;1.90;;
5813;SDS011;2933;52.302;8.134;2022-07-01T12:35:13;2.00;;;1.90;;
5813;SDS011;2933;52.302;8.134;2022-07-01T12:40:39;2.60;;;1.73;;
5813;SDS011;2933;52.302;8.134;2022-07-01T12:45:41;4.73;;;1.80;;
5813;SDS011;2933;52.302;8.134;2022-07-01T12:50:42;3.90;;;1.80;;
5813;SDS011;2933;52.302;8.134;2022-07-01T12:55:48;1.80;;;1.70;;
5813;SDS011;2933;52.302;8.134;2022-07-01T13:00:51;1.30;;;1.30;;
5813;SDS011;2933;52.302;8.134;2022-07-01T13:05:54;1.60;;;1.50;;
5813;SDS011;2933;52.302;8.134;2022-07-01T13:10:58;3.33;;;1.80;;
5813;SDS011;2933;52.302;8.134;2022-07-01T13:16:00;1.80;;;1.70;;
5813;SDS011;2933;52.302;8.134;2022-07-01T13:21:02;2.03;;;1.93;;
5813;SDS011;2933;52.302;8.134;2022-07-01T13:26:05;1.47;;;1.37;;
5813;SDS011;2933;52.302;8.134;2022-07-01T13:31:06;2.70;;;1.57;;
5813;SDS011;2933;52.302;8.134;2022-07-01T13:36:08;6.07;;;1.60;;
5813;SDS011;2933;52.302;8.134;2022-07-01T13:41:12;1.90;;;1.80;;
5813;SDS011;2933;52.302;8.134;2022-07-01T13:46:14;1.73;;;1.63;;
5813;SDS011;2933;52.302;8.134;2022-07-01T13:51:15;1.93;;;1.70;;
5813;SDS011;2933;52.302;8.134;2022-07-01T13:56:18;1.73;;;1.60;;
5813;SDS011;2933;52.302;8.134;2022-07-01T14:01:21;2.50;;;1.63;;
5813;SDS011;2933;52.302;8.134;2022-07-01T14:06:23;4.40;;;1.30;;
5813;SDS011;2933;52.302;8.134;2022-07-01T14:11:26;2.40;;;1.40;;
5813;SDS011;2933;52.302;8.134;2022-07-01T14:16:28;1.30;;;1.13;;
5813;SDS011;2933;52.302;8.134;2022-07-01T14:21:30;1.40;;;1.07;;
5813;SDS011;2933;52.302;8.134;2022-07-01T14:26:33;5.63;;;1.37;;
5813;SDS011;2933;52.302;8.134;2022-07-01T14:31:34;1.67;;;1.10;;
5813;SDS011;2933;52.302;8.134;2022-07-01T14:36:36;1.73;;;1.03;;
5813;SDS011;2933;52.302;8.134;2022-07-01T14:41:39;1.33;;;0.80;;
5813;SDS011;2933;52.302;8.134;2022-07-01T14:46:40;0.87;;;0.70;;
5813;SDS011;2933;52.302;8.134;2022-07-01T14:51:42;3.70;;;0.80;;
5813;SDS011;2933;52.302;8.134;2022-07-01T14:56:45;1.67;;;0.90;;
5813;SDS011;2933;52.302;8.134;2022-07-01T15:01:46;2.20;;;0.70;;
5813;SDS011;2933;52.302;8.134;2022-07-01T15:06:48;2.03;;;0.80;;
5813;SDS011;2933;52.302;8.134;2022-07-01T15:11:51;0.77;;;0.77;;
5813;SDS011;2933;52.302;8.134;2022-07-01T15:16:53;0.83;;;0.77;;
5813;SDS011;2933;52.302;8.134;2022-07-01T15:21:55;2.17;;;0.93;;
5813;SDS011;2933;52.302;8.134;2022-07-01T15:26:59;2.03;;;0.70;;
5813;SDS011;2933;52.302;8.134;2022-07-01T15:32:00;4.23;;;0.87;;
5813;SDS011;2933;52.302;8.134;2022-07-01T15:37:06;3.60;;;0.90;;
5813;SDS011;2933;52.302;8.134;2022-07-01T15:42:12;0.90;;;0.70;;
5813;SDS011;2933;52.302;8.134;2022-07-01T15:47:16;0.70;;;0.70;;
5813;SDS011;2933;52.302;8.134;2022-07-01T15:52:32;1.07;;;0.60;;
5813;SDS011;2933;52.302;8.134;2022-07-01T15:57:35;1.47;;;0.70;;
5813;SDS011;2933;52.302;8.134;2022-07-01T16:02:36;1.00;;;0.50;;
5813;SDS011;2933;52.302;8.134;2022-07-01T16:07:38;1.70;;;0.70;;
5813;SDS011;2933;52.302;8.134;2022-07-01T16:12:41;0.87;;;0.73;;
5813;SDS011;2933;52.302;8.134;2022-07-01T16:17:45;8.33;;;0.70;;
5813;SDS011;2933;52.302;8.134;2022-07-01T16:22:49;0.63;;;0.63;;
5813;SDS011;2933;52.302;8.134;2022-07-01T16:27:56;0.80;;;0.60;;
5813;SDS011;2933;52.302;8.134;2022-07-01T16:32:59;0.50;;;0.50;;
5813;SDS011;2933;52.302;8.134;2022-07-01T16:38:01;3.30;;;0.80;;
5813;SDS011;2933;52.302;8.134;2022-07-01T16:43:04;3.80;;;0.60;;
5813;SDS011;2933;52.302;8.134;2022-07-01T16:48:09;4.63;;;0.60;;
5813;SDS011;2933;52.302;8.134;2022-07-01T16:53:12;2.77;;;0.70;;
5813;SDS011;2933;52.302;8.134;2022-07-01T16:58:19;0.60;;;0.60;;
5813;SDS011;2933;52.302;8.134;2022-07-01T17:03:23;0.50;;;0.50;;
5813;SDS011;2933;52.302;8.134;2022-07-01T17:08:25;1.67;;;0.60;;
5813;SDS011;2933;52.302;8.134;2022-07-01T17:13:30;3.23;;;0.70;;
5813;SDS011;2933;52.302;8.134;2022-07-01T17:18:32;2.87;;;0.60;;
5813;SDS011;2933;52.302;8.134;2022-07-01T17:23:35;6.00;;;0.90;;
5813;SDS011;2933;52.302;8.134;2022-07-01T17:28:44;2.10;;;0.60;;
5813;SDS011;2933;52.302;8.134;2022-07-01T17:33:51;7.23;;;0.70;;
5813;SDS011;2933;52.302;8.134;2022-07-01T17:38:55;5.33;;;0.93;;
5813;SDS011;2933;52.302;8.134;2022-07-01T17:44:05;2.60;;;0.90;;
5813;SDS011;2933;52.302;8.134;2022-07-01T17:49:07;1.13;;;0.90;;
5813;SDS011;2933;52.302;8.134;2022-07-01T17:54:12;2.73;;;0.60;;
5813;SDS011;2933;52.302;8.134;2022-07-01T17:59:16;0.90;;;0.70;;
5813;SDS011;2933;52.302;8.134;2022-07-01T18:04:18;1.00;;;0.70;;
5813;SDS011;2933;52.302;8.134;2022-07-01T18:09:23;1.70;;;0.67;;
5813;SDS011;2933;52.302;8.134;2022-07-01T18:14:31;1.20;;;1.20;;
5813;SDS011;2933;52.302;8.134;2022-07-01T18:19:34;0.80;;;0.80;;
5813;SDS011;2933;52.302;8.134;2022-07-01T18:24:44;0.77;;;0.77;;
5813;SDS011;2933;52.302;8.134;2022-07-01T18:29:52;4.90;;;1.00;;
5813;SDS011;2933;52.302;8.134;2022-07-01T18:34:56;2.97;;;0.70;;
5813;SDS011;2933;52.302;8.134;2022-07-01T18:39:59;2.77;;;0.83;;
5813;SDS011;2933;52.302;8.134;2022-07-01T18:45:03;1.23;;;0.80;;
5813;SDS011;2933;52.302;8.134;2022-07-01T18:50:06;1.00;;;0.90;;
5813;SDS011;2933;52.302;8.134;2022-07-01T18:55:09;4.50;;;0.70;;
5813;SDS011;2933;52.302;8.134;2022-07-01T19:00:13;1.47;;;0.70;;
5813;SDS011;2933;52.302;8.134;2022-07-01T19:05:17;0.53;;;0.53;;
5813;SDS011;2933;52.302;8.134;2022-07-01T19:10:19;6.13;;;0.80;;
5813;SDS011;2933;52.302;8.134;2022-07-01T19:15:22;0.90;;;0.57;;
5813;SDS011;2933;52.302;8.134;2022-07-01T19:20:23;1.43;;;1.00;;
5813;SDS011;2933;52.302;8.134;2022-07-01T19:25:25;0.90;;;0.77;;
5813;SDS011;2933;52.302;8.134;2022-07-01T19:30:28;1.20;;;0.87;;
5813;SDS011;2933;52.302;8.134;2022-07-01T19:35:30;1.10;;;0.83;;
5813;SDS011;2933;52.302;8.134;2022-07-01T19:40:31;1.90;;;1.10;;
5813;SDS011;2933;52.302;8.134;2022-07-01T19:45:34;4.80;;;0.90;;
5813;SDS011;2933;52.302;8.134;2022-07-01T19:50:35;1.80;;;0.80;;
5813;SDS011;2933;52.302;8.134;2022-07-01T19:55:37;3.70;;;1.00;;
5813;SDS011;2933;52.302;8.134;2022-07-01T20:00:40;8.43;;;0.87;;
5813;SDS011;2933;52.302;8.134;2022-07-01T20:05:41;3.60;;;2.07;;
5813;SDS011;2933;52.302;8.134;2022-07-01T20:10:43;2.17;;;1.70;;
5813;SDS011;2933;52.302;8.134;2022-07-01T20:15:46;1.60;;;1.50;;
5813;SDS011;2933;52.302;8.134;2022-07-01T20:20:48;1.63;;;1.53;;
5813;SDS011;2933;52.302;8.134;2022-07-01T20:25:49;4.40;;;1.40;;
5813;SDS011;2933;52.302;8.134;2022-07-01T20:30:52;2.10;;;1.40;;
5813;SDS011;2933;52.302;8.134;2022-07-01T20:35:54;5.17;;;1.57;;
5813;SDS011;2933;52.302;8.134;2022-07-01T20:40:55;1.10;;;1.00;;
5813;SDS011;2933;52.302;8.134;2022-07-01T20:45:58;1.77;;;1.67;;
5813;SDS011;2933;52.302;8.134;2022-07-01T20:50:59;2.20;;;1.43;;
5813;SDS011;2933;52.302;8.134;2022-07-01T20:56:03;1.60;;;1.50;;
5813;SDS011;2933;52.302;8.134;2022-07-01T21:01:06;9.10;;;4.00;;
5813;SDS011;2933;52.302;8.134;2022-07-01T21:06:08;9.03;;;2.90;;
5813;SDS011;2933;52.302;8.134;2022-07-01T21:11:09;8.83;;;3.13;;
5813;SDS011;2933;52.302;8.134;2022-07-01T21:16:12;3.37;;;3.07;;
5813;SDS011;2933;52.302;8.134;2022-07-01T21:21:14;4.20;;;2.20;;
5813;SDS011;2933;52.302;8.134;2022-07-01T21:26:15;1.70;;;1.60;;
5813;SDS011;2933;52.302;8.134;2022-07-01T21:31:18;4.97;;;1.90;;
5813;SDS011;2933;52.302;8.134;2022-07-01T21:36:20;1.97;;;1.50;;
5813;SDS011;2933;52.302;8.134;2022-07-01T21:41:22;6.80;;;1.73;;
5813;SDS011;2933;52.302;8.134;2022-07-01T21:46:25;2.07;;;1.20;;
5813;SDS011;2933;52.302;8.134;2022-07-01T21:51:32;2.50;;;1.13;;
5813;SDS011;2933;52.302;8.134;2022-07-01T21:56:38;4.83;;;1.33;;
5813;SDS011;2933;52.302;8.134;2022-07-01T22:01:42;6.30;;;2.60;;
5813;SDS011;2933;52.302;8.134;2022-07-01T22:06:44;2.00;;;1.03;;
5813;SDS011;2933;52.302;8.134;2022-07-01T22:11:52;1.50;;;1.40;;
5813;SDS011;2933;52.302;8.134;2022-07-01T22:16:57;1.43;;;1.30;;
5813;SDS011;2933;52.302;8.134;2022-07-01T22:22:00;1.37;;;1.10;;
5813;SDS011;2933;52.302;8.134;2022-07-01T22:27:03;1.60;;;1.50;;
5813;SDS011;2933;52.302;8.134;2022-07-01T22:32:08;1.37;;;1.27;;
5813;SDS011;2933;52.302;8.134;2022-07-01T22:37:10;1.50;;;1.37;;
5813;SDS011;2933;52.302;8.134;2022-07-01T22:42:12;1.97;;;1.23;;
5813;SDS011;2933;52.302;8.134;2022-07-01T22:47:18;1.20;;;1.20;;
5813;SDS011;2933;52.302;8.134;2022-07-01T22:52:20;4.03;;;1.30;;
5813;SDS011;2933;52.302;8.134;2022-07-01T22:57:33;2.30;;;1.20;;
5813;SDS011;2933;52.302;8.134;2022-07-01T23:02:38;4.50;;;1.50;;
5813;SDS011;2933;52.302;8.134;2022-07-01T23:07:41;2.07;;;1.50;;
5813;SDS011;2933;52.302;8.134;2022-07-01T23:12:47;4.00;;;1.63;;
5813;SDS011;2933;52.302;8.134;2022-07-01T23:17:57;6.27;;;1.60;;
5813;SDS011;2933;52.302;8.134;2022-07-01T23:22:58;1.80;;;1.70;;
5813;SDS011;2933;52.302;8.134;2022-07-01T23:28:01;1.60;;;1.50;;
5813;SDS011;2933;52.302;8.134;2022-07-01T23:33:04;2.77;;;1.90;;
5813;SDS011;2933;52.302;8.134;2022-07-01T23:38:08;1.97;;;1.70;;
5813;SDS011;2933;52.302;8.134;2022-07-01T23:43:10;6.60;;;2.10;;
5813;SDS011;2933;52.302;8.134;2022-07-01T23:48:13;2.10;;;2.00;;
5813;SDS011;2933;52.302;8.134;2022-07-01T23:53:15;1.97;;;1.87;;
5813;SDS011;2933;52.302;8.134;2022-07-01T23:58:16;2.13;;;2.00;;
